Time;durP1;ratioP1;P1;durP2;ratioP2;P2;SDS_P1;SDS_P2;PMS_P1;PMS_P2;Temp;Humidity;BMP_temperature;BMP_pressure;BME280_temperature;BME280_humidity;BME280_pressure;Samples;Min_cycle;Max_cycle;Signal;HPM_P1;HPM_P2
2022/06/21 00:00:21;;;;;;;6.45;4.07;;;;;;;19.55;66.97;94693.25;5027865;28;20209;-70
2022/06/21 00:02:49;;;;;;;6.35;4.40;;;;;;;19.55;67.08;94688.09;5026683;28;21286;-69
2022/06/21 00:05:23;;;;;;;9.00;8.07;;;;;;;19.70;66.22;94692.13;5026334;28;20712;-71
2022/06/21 00:07:50;;;;;;;10.38;5.00;;;;;;;19.85;66.01;94694.47;5027712;28;20207;-70
2022/06/21 00:10:20;;;;;;;6.45;4.95;;;;;;;19.81;66.21;94695.66;5026942;28;20675;-72
2022/06/21 00:12:47;;;;;;;8.45;4.60;;;;;;;19.82;66.10;94694.72;5026842;28;20227;-72
2022/06/21 00:15:15;;;;;;;5.03;4.57;;;;;;;19.81;66.54;94699.03;5027809;28;20206;-70
2022/06/21 00:17:46;;;;;;;6.22;4.63;;;;;;;19.95;66.15;94701.41;5027973;28;20212;-70
2022/06/21 00:20:18;;;;;;;5.15;4.25;;;;;;;20.28;64.90;94692.88;5027336;28;20268;-70
2022/06/21 00:22:45;;;;;;;4.57;4.10;;;;;;;20.57;64.17;94703.50;5027375;28;20214;-69
2022/06/21 00:25:19;;;;;;;7.60;5.00;;;;;;;20.71;63.39;94692.94;5025105;28;20206;-70
2022/06/21 00:27:46;;;;;;;4.75;4.40;;;;;;;20.81;62.97;94689.59;5028849;28;20207;-70
2022/06/21 00:30:14;;;;;;;5.32;4.88;;;;;;;20.82;62.73;94691.25;5028738;28;20207;-70
2022/06/21 00:32:41;;;;;;;5.47;3.83;;;;;;;20.81;62.66;94680.09;5026417;28;20207;-70
2022/06/21 00:35:12;;;;;;;4.88;3.97;;;;;;;20.68;62.23;94685.41;5027655;28;20668;-71
2022/06/21 00:37:39;;;;;;;3.85;3.50;;;;;;;20.60;62.70;94692.94;5026380;28;20220;-70
2022/06/21 00:40:19;;;;;;;3.80;3.42;;;;;;;20.61;62.75;94684.25;5026926;28;20577;-70
2022/06/21 00:42:51;;;;;;;4.05;3.63;;;;;;;20.68;62.29;94687.19;5029010;28;20602;-70
2022/06/21 00:45:27;;;;;;;4.45;3.60;;;;;;;20.61;62.27;94691.19;5028886;28;20819;-70
2022/06/21 00:47:57;;;;;;;4.72;4.40;;;;;;;20.68;62.29;94687.19;5030423;28;20207;-71
2022/06/21 00:50:30;;;;;;;3.90;3.70;;;;;;;20.68;62.16;94695.75;5030162;28;20921;-71
2022/06/21 00:53:02;;;;;;;4.53;4.10;;;;;;;20.62;61.81;94692.81;5030878;28;20207;-71
2022/06/21 00:55:40;;;;;;;3.60;3.40;;;;;;;20.54;62.12;94683.09;5033280;28;20265;-71
2022/06/21 00:58:11;;;;;;;8.05;4.13;;;;;;;20.48;62.28;94688.75;5030591;28;20242;-71
2022/06/21 01:00:46;;;;;;;4.53;3.88;;;;;;;20.47;62.54;94686.28;5029007;28;20292;-72
2022/06/21 01:03:20;;;;;;;4.28;3.42;;;;;;;20.54;62.26;94692.63;5029521;28;20203;-71
2022/06/21 01:05:47;;;;;;;5.32;4.10;;;;;;;20.45;62.46;94686.41;5031859;28;20226;-71
2022/06/21 01:08:18;;;;;;;7.28;3.95;;;;;;;20.21;62.85;94681.38;5030894;28;20207;-71
2022/06/21 01:10:51;;;;;;;5.10;3.92;;;;;;;20.07;63.28;94673.84;5031765;28;20230;-71
2022/06/21 01:13:22;;;;;;;3.78;3.47;;;;;;;19.84;63.46;94675.63;5029888;28;20235;-72
2022/06/21 01:15:52;;;;;;;4.25;3.60;;;;;;;19.73;64.04;94685.94;5031198;28;20202;-71
2022/06/21 01:18:22;;;;;;;3.78;3.50;;;;;;;19.68;64.43;94688.84;5029763;28;20221;-70
2022/06/21 01:20:52;;;;;;;3.67;3.40;;;;;;;19.78;64.19;94693.31;5030715;28;20207;-72
2022/06/21 01:23:29;;;;;;;3.45;3.28;;;;;;;19.36;65.62;94692.97;5030314;28;20207;-71
2022/06/21 01:26:08;;;;;;;4.15;3.95;;;;;;;19.09;66.89;94693.22;5032398;28;20207;-71
2022/06/21 01:28:36;;;;;;;5.65;3.88;;;;;;;19.23;66.31;94687.91;5029919;28;20210;-70
2022/06/21 01:31:03;;;;;;;5.75;3.58;;;;;;;19.20;66.56;94688.13;5028914;28;20512;-70
2022/06/21 01:33:34;;;;;;;4.00;3.70;;;;;;;19.18;66.29;94686.59;5028525;28;20222;-69
2022/06/21 01:36:03;;;;;;;4.78;3.95;;;;;;;19.16;66.95;94691.03;5028845;28;20276;-70
2022/06/21 01:38:36;;;;;;;4.28;3.55;;;;;;;19.07;67.49;94692.50;5029369;28;20210;-70
2022/06/21 01:41:07;;;;;;;4.30;4.00;;;;;;;18.97;68.18;94689.81;5030310;28;20277;-71
2022/06/21 01:43:35;;;;;;;6.53;4.68;;;;;;;18.78;68.96;94686.91;5029448;28;20737;-70
2022/06/21 01:46:10;;;;;;;6.45;4.35;;;;;;;18.65;69.43;94686.13;5030230;28;20203;-71
2022/06/21 01:48:40;;;;;;;5.13;4.65;;;;;;;18.52;70.29;94696.44;5029156;28;20210;-71
2022/06/21 01:51:10;;;;;;;5.57;4.78;;;;;;;18.31;71.16;94697.97;5026523;28;20234;-70
2022/06/21 01:53:37;;;;;;;5.53;5.03;;;;;;;18.17;72.14;94701.47;5028603;28;20246;-70
2022/06/21 01:56:09;;;;;;;5.15;4.85;;;;;;;18.00;72.84;94707.78;5030045;28;20218;-70
2022/06/21 01:58:41;;;;;;;4.97;4.68;;;;;;;18.25;72.17;94699.19;5029042;28;20704;-71
2022/06/21 02:01:16;;;;;;;5.63;5.15;;;;;;;18.21;71.92;94697.75;5029097;28;20680;-70
2022/06/21 02:03:45;;;;;;;4.57;4.28;;;;;;;18.58;70.77;94705.47;5029642;28;20207;-69
2022/06/21 02:06:14;;;;;;;7.68;4.13;;;;;;;18.85;69.95;94698.41;5029928;28;21070;-70
2022/06/21 02:08:45;;;;;;;8.00;3.75;;;;;;;19.06;69.32;94701.16;5028650;28;20207;-70
2022/06/21 02:11:19;;;;;;;5.38;4.50;;;;;;;19.21;68.73;94694.94;5028361;28;20210;-71
2022/06/21 02:14:27;;;;;;;4.88;4.47;;;;;;;19.22;68.70;94696.56;5029614;28;20223;-70
2022/06/21 02:16:41;;;;;;;4.75;4.30;;;;;;;19.38;67.81;94701.41;5028755;28;21149;-69
2022/06/21 02:19:14;;;;;;;4.72;4.30;;;;;;;19.59;67.12;94699.84;5029021;28;20203;-70
2022/06/21 02:21:43;;;;;;;6.10;4.18;;;;;;;19.74;66.42;94703.03;5027009;28;20266;-69
2022/06/21 02:24:15;;;;;;;4.07;3.78;;;;;;;19.78;66.03;94699.31;5026857;28;20206;-69
2022/06/21 02:26:42;;;;;;;5.03;4.10;;;;;;;19.73;65.94;94692.84;5026804;28;20339;-70
2022/06/21 02:29:13;;;;;;;11.23;4.03;;;;;;;19.33;67.09;94685.47;5026919;28;20296;-69
2022/06/21 02:31:41;;;;;;;4.18;3.90;;;;;;;19.21;67.81;94691.53;5026260;28;20206;-69
2022/06/21 02:34:24;;;;;;;6.60;4.47;;;;;;;19.39;67.24;94692.75;5027777;28;20227;-69
2022/06/21 02:36:55;;;;;;;4.45;4.15;;;;;;;19.45;66.46;94687.16;5027559;28;20211;-69
2022/06/21 02:39:25;;;;;;;4.55;3.78;;;;;;;19.38;66.60;94683.38;5026629;28;20680;-70
2022/06/21 02:41:57;;;;;;;5.70;4.57;;;;;;;19.40;66.55;94684.06;5026495;28;20206;-70
2022/06/21 02:44:27;;;;;;;5.00;4.50;;;;;;;19.44;66.28;94685.50;5027274;28;20264;-69
2022/06/21 02:47:01;;;;;;;6.80;4.65;;;;;;;19.08;67.43;94693.34;5026568;28;20198;-70
2022/06/21 02:49:34;;;;;;;5.60;4.63;;;;;;;18.92;68.03;94681.59;5027215;28;20389;-70
2022/06/21 02:52:07;;;;;;;4.57;4.38;;;;;;;18.88;68.10;94681.91;5026083;28;20199;-69
2022/06/21 02:54:37;;;;;;;9.32;4.80;;;;;;;18.65;69.09;94678.41;5028774;28;20559;-70
2022/06/21 02:57:10;;;;;;;5.47;5.05;;;;;;;18.14;71.70;94683.66;5027966;28;20260;-70
2022/06/21 02:59:39;;;;;;;8.13;4.75;;;;;;;17.95;72.50;94683.31;5028145;28;20237;-70
2022/06/21 03:02:11;;;;;;;5.03;4.47;;;;;;;18.48;71.06;94686.47;5026980;28;20268;-69
2022/06/21 03:04:41;;;;;;;5.30;4.90;;;;;;;18.84;69.56;94675.34;5029233;28;20223;-70
2022/06/21 03:07:13;;;;;;;7.10;4.68;;;;;;;18.97;68.74;94674.34;5027541;28;20272;-71
2022/06/21 03:09:40;;;;;;;6.07;5.35;;;;;;;19.19;67.78;94675.34;5028030;28;20234;-70
2022/06/21 03:12:08;;;;;;;5.50;5.00;;;;;;;19.26;67.66;94676.56;5027529;28;20208;-70
2022/06/21 03:14:37;;;;;;;5.18;4.13;;;;;;;19.22;67.70;94675.13;5028799;28;20296;-70
2022/06/21 03:17:07;;;;;;;5.25;4.70;;;;;;;19.33;67.17;94680.31;5028923;28;20210;-70
2022/06/21 03:19:39;;;;;;;5.30;4.85;;;;;;;19.24;67.36;94673.28;5026798;28;20829;-70
2022/06/21 03:22:15;;;;;;;5.70;5.20;;;;;;;19.21;67.60;94669.16;5025991;28;20738;-70
2022/06/21 03:24:42;;;;;;;7.07;6.47;;;;;;;19.19;67.83;94659.91;5027704;28;20553;-70
2022/06/21 03:27:18;;;;;;;10.00;8.75;;;;;;;19.10;67.69;94663.13;5026872;28;20692;-71
2022/06/21 03:29:45;;;;;;;15.15;9.27;;;;;;;19.54;66.65;94676.19;5027236;28;20516;-71
2022/06/21 03:32:12;;;;;;;8.68;7.93;;;;;;;20.80;62.73;94668.13;5027212;28;20582;-70
2022/06/21 03:34:41;;;;;;;6.82;6.22;;;;;;;22.23;57.28;94666.63;5028455;28;20727;-70
2022/06/21 03:37:08;;;;;;;7.72;6.82;;;;;;;23.41;53.86;94670.03;5028277;28;20802;-70
2022/06/21 03:42:25;;;;;;;37.90;27.90;;;;;;;25.82;47.62;94662.69;5026974;28;20722;-70
2022/06/21 03:44:57;;;;;;;17.83;13.70;;;;;;;26.71;45.12;94660.53;5028490;28;20203;-70
2022/06/21 03:47:29;;;;;;;33.42;24.15;;;;;;;27.54;42.86;94674.31;5028735;28;20260;-70
2022/06/21 03:50:02;;;;;;;15.60;13.32;;;;;;;28.10;42.10;94683.09;5027814;28;20728;-70
2022/06/21 03:52:45;;;;;;;26.50;17.73;;;;;;;28.90;40.34;94678.56;5027385;28;20251;-71
2022/06/21 03:55:34;;;;;;;9.23;8.52;;;;;;;29.69;38.97;94684.41;5028394;28;20218;-69
2022/06/21 03:58:07;;;;;;;8.25;7.65;;;;;;;30.29;37.52;94673.00;5027973;28;20571;-70
2022/06/21 04:00:39;;;;;;;12.45;11.15;;;;;;;30.71;36.29;94674.97;5028020;28;20281;-70
2022/06/21 04:03:10;;;;;;;10.15;9.27;;;;;;;31.05;36.18;94677.00;5027068;28;20226;-69
2022/06/21 04:05:46;;;;;;;13.25;8.13;;;;;;;31.18;35.32;94669.28;5028010;28;20778;-69
2022/06/21 04:08:19;;;;;;;6.78;4.88;;;;;;;31.76;34.68;94662.94;5027924;28;20198;-70
2022/06/21 04:10:51;;;;;;;5.90;5.32;;;;;;;31.75;34.84;94663.94;5028092;28;20324;-70
2022/06/21 04:13:24;;;;;;;5.82;5.30;;;;;;;31.91;34.41;94657.63;5026670;28;20695;-70
2022/06/21 04:16:01;;;;;;;9.02;5.35;;;;;;;31.61;34.50;94661.38;5028209;28;20211;-70
2022/06/21 04:18:37;;;;;;;6.25;4.68;;;;;;;30.85;35.81;94655.78;5030761;28;20199;-71
2022/06/21 04:21:10;;;;;;;4.93;4.60;;;;;;;29.83;37.96;94654.00;5031250;28;20207;-71
2022/06/21 04:23:43;;;;;;;6.45;4.50;;;;;;;28.77;39.39;94657.34;5030880;28;21031;-70
2022/06/21 04:26:16;;;;;;;4.85;4.43;;;;;;;28.19;41.17;94658.56;5031692;28;20306;-70
2022/06/21 04:28:49;;;;;;;7.90;4.55;;;;;;;27.67;41.98;94659.00;5030788;28;20213;-70
2022/06/21 04:31:21;;;;;;;4.85;4.45;;;;;;;27.63;41.96;94651.66;5031388;28;20746;-70
2022/06/21 04:33:53;;;;;;;5.75;4.30;;;;;;;27.41;42.84;94647.91;5030370;28;20207;-70
2022/06/21 04:36:26;;;;;;;7.45;4.78;;;;;;;27.31;42.99;94640.22;5031347;28;20195;-71
2022/06/21 04:38:58;;;;;;;11.68;5.68;;;;;;;28.67;40.31;94643.69;5031319;28;20211;-70
2022/06/21 04:41:31;;;;;;;7.03;5.32;;;;;;;29.67;38.65;94645.31;5030729;28;20661;-72
2022/06/21 04:44:03;;;;;;;18.25;13.82;;;;;;;31.41;35.65;94634.97;5030143;28;20206;-71
2022/06/21 04:46:36;;;;;;;34.55;25.65;;;;;;;32.35;33.97;94638.88;5031050;28;20854;-69
2022/06/21 04:49:11;;;;;;;12.40;10.82;;;;;;;32.78;33.19;94654.47;5030765;28;20211;-71
2022/06/21 04:51:45;;;;;;;10.35;6.45;;;;;;;33.40;32.04;94648.97;5030259;28;20203;-69
2022/06/21 04:54:18;;;;;;;6.65;5.47;;;;;;;33.32;31.98;94650.97;5029580;28;20601;-69
2022/06/21 04:56:52;;;;;;;12.10;5.47;;;;;;;33.35;31.78;94656.66;5031324;28;21566;-70
2022/06/21 04:59:27;;;;;;;7.30;5.32;;;;;;;34.08;30.72;94661.94;5030937;28;20275;-69
2022/06/21 05:01:55;;;;;;;5.25;4.95;;;;;;;35.20;29.01;94666.03;5030288;28;20214;-71
2022/06/21 05:04:26;;;;;;;6.50;4.93;;;;;;;35.69;28.38;94673.22;5030576;28;20230;-70
2022/06/21 05:06:57;;;;;;;5.80;5.20;;;;;;;36.01;27.30;94669.53;5031393;28;20293;-70
2022/06/21 05:09:28;;;;;;;5.00;4.47;;;;;;;35.65;27.61;94672.84;5030111;28;20239;-70
2022/06/21 05:12:03;;;;;;;7.65;4.57;;;;;;;33.93;30.42;94671.88;5030084;28;20688;-70
2022/06/21 05:14:33;;;;;;;5.55;5.10;;;;;;;32.25;32.66;94684.94;5030264;28;20257;-70
2022/06/21 05:17:00;;;;;;;7.72;5.35;;;;;;;31.03;35.42;94682.41;5030387;28;20215;-70
2022/06/21 05:19:32;;;;;;;5.43;5.00;;;;;;;30.28;36.56;94687.94;5029801;28;20206;-70
2022/06/21 05:22:09;;;;;;;5.88;5.28;;;;;;;30.33;37.17;94696.06;5029805;28;20226;-70
2022/06/21 05:24:36;;;;;;;6.78;5.63;;;;;;;31.27;35.58;94672.59;5030389;28;20243;-69
2022/06/21 05:27:08;;;;;;;9.43;5.80;;;;;;;32.96;32.86;94680.22;5030304;28;20237;-70
2022/06/21 05:29:42;;;;;;;8.85;5.03;;;;;;;33.58;31.40;94682.63;5028894;28;20253;-70
2022/06/21 05:32:16;;;;;;;5.50;5.05;;;;;;;33.20;31.82;94674.41;5029344;28;21439;-70
2022/06/21 05:34:47;;;;;;;11.50;6.18;;;;;;;35.08;29.69;94681.75;5029911;28;20226;-70
2022/06/21 05:37:29;;;;;;;8.05;5.28;;;;;;;36.67;27.82;94671.50;5030002;28;20203;-71
2022/06/21 05:39:58;;;;;;;7.18;6.65;;;;;;;37.38;26.43;94678.78;5029746;28;20684;-70
2022/06/21 05:42:29;;;;;;;6.05;5.13;;;;;;;37.72;26.08;94673.81;5029308;28;20210;-70
2022/06/21 05:45:03;;;;;;;5.70;5.05;;;;;;;37.32;26.45;94668.31;5030097;28;20199;-70
2022/06/21 05:47:34;;;;;;;5.70;4.68;;;;;;;37.27;26.24;94673.47;5029145;28;20214;-70
2022/06/21 05:50:04;;;;;;;5.75;5.05;;;;;;;37.47;25.97;94666.03;5030151;28;20261;-70
2022/06/21 05:52:35;;;;;;;5.25;4.78;;;;;;;37.73;25.13;94660.34;5029142;28;20668;-70
2022/06/21 05:55:06;;;;;;;8.77;4.90;;;;;;;37.78;25.56;94659.66;5030335;28;20567;-69
2022/06/21 05:57:39;;;;;;;7.30;4.95;;;;;;;37.93;25.42;94662.66;5029452;28;20580;-69
2022/06/21 06:00:18;;;;;;;7.05;5.53;;;;;;;36.70;26.98;94657.84;5029101;28;20203;-70
2022/06/21 06:02:50;;;;;;;5.35;4.85;;;;;;;36.46;27.65;94658.72;5028920;28;20209;-70
2022/06/21 06:05:22;;;;;;;6.45;5.55;;;;;;;36.28;28.07;94667.47;5029288;28;20223;-69
2022/06/21 06:07:55;;;;;;;7.50;6.25;;;;;;;35.32;28.93;94657.25;5029036;28;20647;-70
2022/06/21 06:10:24;;;;;;;7.43;5.53;;;;;;;35.22;28.94;94658.69;5028825;28;20231;-69
2022/06/21 06:12:57;;;;;;;7.63;5.88;;;;;;;35.07;29.91;94659.81;5028749;28;20207;-70
2022/06/21 06:15:28;;;;;;;7.80;5.65;;;;;;;34.31;31.36;94669.44;5030043;28;20226;-70
2022/06/21 06:18:00;;;;;;;11.10;5.93;;;;;;;34.68;30.67;94663.41;5028505;28;20207;-70
2022/06/21 06:20:32;;;;;;;10.38;6.93;;;;;;;34.89;29.68;94672.09;5028453;28;20536;-70
2022/06/21 06:23:07;;;;;;;10.45;8.43;;;;;;;34.35;30.62;94679.38;5028844;28;20237;-70
2022/06/21 06:25:39;;;;;;;11.07;6.32;;;;;;;33.91;30.97;94676.53;5029011;28;20213;-69
2022/06/21 06:28:18;;;;;;;8.20;6.57;;;;;;;33.70;31.85;94677.53;5028828;28;20256;-69
2022/06/21 06:30:48;;;;;;;10.43;6.50;;;;;;;33.70;32.42;94680.16;5028367;28;20206;-69
2022/06/21 06:33:22;;;;;;;5.82;5.43;;;;;;;33.28;32.94;94673.47;5028003;28;20654;-69
2022/06/21 06:35:50;;;;;;;6.15;5.65;;;;;;;32.72;33.92;94679.72;5029101;28;20252;-69
2022/06/21 06:38:19;;;;;;;6.35;5.32;;;;;;;32.10;35.60;94679.78;5029036;28;20280;-70
2022/06/21 06:40:50;;;;;;;8.20;5.25;;;;;;;31.84;35.29;94683.03;5028356;28;20211;-69
2022/06/21 06:43:24;;;;;;;7.38;4.93;;;;;;;31.77;35.85;94680.34;5028544;28;20217;-69
2022/06/21 06:45:51;;;;;;;9.82;5.15;;;;;;;31.62;36.42;94668.28;5029317;28;20203;-69
2022/06/21 06:48:25;;;;;;;15.27;5.60;;;;;;;31.26;37.24;94669.16;5028138;28;20211;-70
2022/06/21 06:50:55;;;;;;;9.13;4.93;;;;;;;31.13;37.57;94662.97;5028441;28;20285;-69
2022/06/21 06:53:30;;;;;;;10.48;6.65;;;;;;;30.81;38.54;94672.88;5028256;28;20355;-69
2022/06/21 06:56:03;;;;;;;10.98;5.65;;;;;;;30.57;38.94;94663.53;5028674;28;20222;-70
2022/06/21 06:58:36;;;;;;;9.20;4.90;;;;;;;30.37;39.61;94663.25;5028490;28;20222;-69
2022/06/21 07:01:08;;;;;;;18.52;9.93;;;;;;;30.26;40.06;94649.78;5028403;28;20265;-69
2022/06/21 07:03:39;;;;;;;11.13;5.65;;;;;;;30.12;40.38;94654.03;5027292;28;20207;-70
2022/06/21 07:06:13;;;;;;;8.02;5.05;;;;;;;30.01;41.21;94646.63;5028679;28;20314;-71
2022/06/21 07:08:48;;;;;;;12.57;7.05;;;;;;;30.19;41.80;94646.28;5027721;28;20206;-70
2022/06/21 07:11:26;;;;;;;5.90;5.18;;;;;;;30.32;41.39;94644.63;5028248;28;20194;-69
2022/06/21 07:13:53;;;;;;;6.75;6.13;;;;;;;30.24;41.86;94649.97;5027710;28;20265;-68
2022/06/21 07:16:23;;;;;;;12.98;7.30;;;;;;;30.26;42.62;94641.91;5028863;28;20242;-69
2022/06/21 07:18:52;;;;;;;13.57;7.30;;;;;;;30.27;42.50;94640.94;5027471;28;20199;-69
2022/06/21 07:21:21;;;;;;;10.23;6.47;;;;;;;30.46;41.92;94635.91;5027882;28;20218;-69
2022/06/21 07:23:52;;;;;;;11.60;7.60;;;;;;;30.45;41.71;94639.53;5027531;28;20709;-69
2022/06/21 07:26:24;;;;;;;8.15;5.93;;;;;;;30.43;41.80;94641.56;5028391;28;20668;-68
2022/06/21 07:28:54;;;;;;;7.80;5.78;;;;;;;30.60;41.31;94649.25;5027984;28;20622;-69
2022/06/21 07:31:27;;;;;;;16.35;7.60;;;;;;;30.66;41.98;94656.38;5027787;28;20672;-69
2022/06/21 07:33:59;;;;;;;7.65;6.32;;;;;;;30.60;42.77;94644.81;5026790;28;20207;-69
2022/06/21 07:36:32;;;;;;;5.78;5.38;;;;;;;30.48;42.37;94651.47;5027813;28;20326;-70
2022/06/21 07:39:04;;;;;;;14.68;5.22;;;;;;;30.49;43.56;94644.41;5027541;28;20218;-71
2022/06/21 07:41:37;;;;;;;7.63;5.00;;;;;;;30.59;42.00;94647.63;5027996;28;20195;-71
2022/06/21 07:44:11;;;;;;;8.55;4.63;;;;;;;30.49;43.46;94649.66;5027737;28;20661;-70
2022/06/21 07:46:43;;;;;;;10.38;4.50;;;;;;;30.12;42.66;94651.41;5027843;28;20260;-69
2022/06/21 07:49:16;;;;;;;6.22;4.03;;;;;;;30.16;42.98;94660.56;5027495;28;20229;-69
2022/06/21 07:51:47;;;;;;;4.40;4.00;;;;;;;30.16;43.24;94665.81;5027552;28;20210;-69
2022/06/21 07:54:21;;;;;;;4.00;3.47;;;;;;;29.72;42.11;94669.13;5031674;28;20272;-67
2022/06/21 07:56:51;;;;;;;7.25;4.40;;;;;;;29.47;42.82;94669.50;5032716;28;20223;-69
2022/06/21 07:59:22;;;;;;;4.13;3.90;;;;;;;29.44;42.68;94670.72;5031623;28;20241;-69
2022/06/21 08:07:31;;;;;;;4.13;3.78;;;;;;;29.61;43.12;94682.66;5031112;28;20249;-70
2022/06/21 08:10:04;;;;;;;4.47;4.18;;;;;;;29.54;44.21;94686.16;5031115;28;20458;-69
2022/06/21 08:12:31;;;;;;;4.75;4.45;;;;;;;29.33;43.99;94684.16;5031045;28;20207;-68
2022/06/21 08:14:59;;;;;;;6.00;4.97;;;;;;;29.35;45.02;94690.03;5031692;28;20203;-69
2022/06/21 08:17:34;;;;;;;6.60;4.57;;;;;;;29.10;44.89;94679.75;5031538;28;20851;-69
2022/06/21 08:20:07;;;;;;;5.15;4.65;;;;;;;28.98;46.28;94683.72;5031278;28;20213;-69
2022/06/21 08:22:41;;;;;;;7.07;5.25;;;;;;;28.87;46.32;94689.38;5031311;28;20844;-69
2022/06/21 08:25:25;;;;;;;5.53;4.90;;;;;;;28.77;46.38;94691.34;5031674;28;20292;-69
2022/06/21 08:27:58;;;;;;;7.55;4.97;;;;;;;28.85;46.56;94687.91;5031828;28;20199;-69
2022/06/21 08:30:31;;;;;;;6.18;5.47;;;;;;;28.89;46.50;94700.47;5031048;28;20211;-69
2022/06/21 08:33:06;;;;;;;6.18;5.55;;;;;;;28.92;46.99;94697.53;5030617;28;20207;-69
2022/06/21 08:35:39;;;;;;;7.28;4.85;;;;;;;28.79;47.51;94702.44;5031250;28;20222;-69
2022/06/21 08:38:11;;;;;;;111.32;71.55;;;;;;;28.69;47.76;94697.44;5031456;28;20203;-70
2022/06/21 08:41:51;;;;;;;17.42;6.65;;;;;;;28.68;48.41;94689.78;5030583;28;20199;-69
2022/06/21 08:44:20;;;;;;;7.30;6.60;;;;;;;28.83;48.78;94693.31;5030264;28;20256;-70
2022/06/21 08:47:07;;;;;;;10.77;6.63;;;;;;;28.82;48.06;94686.44;5031209;28;20589;-69
2022/06/21 08:50:08;;;;;;;11.43;7.65;;;;;;;28.64;48.31;94691.91;5030376;28;20268;-69
2022/06/21 08:52:53;;;;;;;12.27;7.03;;;;;;;28.52;48.32;94684.59;5029771;28;20717;-68
2022/06/21 08:55:31;;;;;;;10.93;7.88;;;;;;;28.34;48.95;94688.25;5030687;28;20811;-71
2022/06/21 08:58:13;;;;;;;12.00;7.53;;;;;;;28.22;49.63;94679.16;5031293;28;20202;-69
2022/06/21 09:00:47;;;;;;;12.63;6.47;;;;;;;28.43;49.97;94671.59;5030498;28;20217;-71
2022/06/21 09:03:26;;;;;;;10.23;7.57;;;;;;;28.55;49.87;94663.34;5029470;28;20210;-71
2022/06/21 09:06:07;;;;;;;7.82;7.13;;;;;;;28.59;50.04;94685.56;5030588;28;20653;-71
2022/06/21 09:08:52;;;;;;;10.27;6.75;;;;;;;28.44;49.87;94673.22;5030299;28;20210;-69
2022/06/21 09:11:30;;;;;;;8.50;6.75;;;;;;;28.59;50.12;94677.72;5030645;28;20202;-72
2022/06/21 09:14:21;;;;;;;14.13;7.78;;;;;;;28.68;49.88;94666.25;5029218;28;21319;-69
2022/06/21 09:16:57;;;;;;;9.15;7.38;;;;;;;28.74;50.25;94662.91;5028949;28;20223;-72
2022/06/21 09:19:37;;;;;;;7.63;6.93;;;;;;;28.75;49.11;94654.91;5028310;28;20209;-71
2022/06/21 09:22:14;;;;;;;12.27;7.05;;;;;;;28.73;49.36;94662.09;5027746;28;20264;-70
2022/06/21 09:24:47;;;;;;;22.88;16.27;;;;;;;28.65;49.26;94656.13;5028871;28;20213;-71
2022/06/21 09:27:19;;;;;;;27.25;15.00;;;;;;;28.65;50.40;94664.78;5028948;28;20222;-71
2022/06/21 09:30:04;;;;;;;25.65;22.45;;;;;;;28.66;50.09;94655.13;5028848;28;20300;-71
2022/06/21 09:32:40;;;;;;;18.30;15.45;;;;;;;28.73;49.54;94645.59;5027855;28;20217;-71
2022/06/21 09:35:22;;;;;;;15.68;13.65;;;;;;;28.58;49.31;94655.97;5028136;28;20804;-71
2022/06/21 09:38:00;;;;;;;12.10;10.88;;;;;;;28.60;49.56;94656.63;5027688;28;20465;-71
2022/06/21 09:40:32;;;;;;;8.23;7.63;;;;;;;28.47;49.97;94655.53;5027040;28;20638;-70
2022/06/21 09:43:10;;;;;;;12.63;7.50;;;;;;;28.44;50.24;94657.53;5027085;28;20210;-70
2022/06/21 09:45:48;;;;;;;12.27;7.72;;;;;;;28.57;51.18;94661.38;5028703;28;20311;-71
2022/06/21 09:48:24;;;;;;;9.45;8.38;;;;;;;28.64;50.65;94655.31;5028818;28;20191;-71
2022/06/21 09:51:00;;;;;;;9.60;7.88;;;;;;;28.65;50.34;94643.03;5029659;28;20261;-71
2022/06/21 09:53:39;;;;;;;8.98;7.97;;;;;;;28.69;50.14;94632.06;5028388;28;20203;-71
2022/06/21 09:56:16;;;;;;;8.15;7.43;;;;;;;28.74;50.38;94644.59;5029510;28;20215;-69
2022/06/21 09:58:47;;;;;;;10.25;9.23;;;;;;;28.66;50.03;94634.22;5029568;28;20260;-68
2022/06/21 10:01:25;;;;;;;17.17;7.90;;;;;;;28.56;50.75;94633.59;5028082;28;21235;-71
2022/06/21 10:04:00;;;;;;;8.38;7.30;;;;;;;28.64;50.50;94641.41;5029013;28;20203;-71
2022/06/21 10:06:35;;;;;;;8.82;7.32;;;;;;;28.75;50.23;94633.16;5027048;28;20584;-71
2022/06/21 10:09:14;;;;;;;13.38;7.93;;;;;;;28.88;51.33;94633.47;5026510;28;20207;-71
2022/06/21 10:11:50;;;;;;;9.10;7.00;;;;;;;29.05;52.01;94634.97;5028825;28;20211;-71
2022/06/21 10:14:30;;;;;;;9.20;6.70;;;;;;;29.29;50.76;94628.72;5028647;28;20211;-71
2022/06/21 10:17:33;;;;;;;8.85;7.15;;;;;;;29.33;49.24;94626.59;5028737;28;20928;-72
2022/06/21 10:20:22;;;;;;;11.90;8.52;;;;;;;29.11;49.98;94623.81;5025750;28;20218;-72
2022/06/21 10:22:58;;;;;;;19.05;11.25;;;;;;;29.08;49.29;94636.44;5028647;28;20599;-72
2022/06/21 10:25:52;;;;;;;12.73;11.52;;;;;;;29.04;50.12;94629.91;5027846;28;21208;-71
2022/06/21 10:28:37;;;;;;;16.30;8.98;;;;;;;29.04;49.97;94632.53;5025947;28;20199;-72
2022/06/21 10:31:34;;;;;;;15.68;12.20;;;;;;;29.08;50.32;94615.50;5028656;28;20207;-71
2022/06/21 10:34:34;;;;;;;12.55;11.25;;;;;;;29.15;50.86;94624.28;5015747;28;20776;-72
2022/06/21 10:37:19;;;;;;;15.25;10.65;;;;;;;29.21;50.49;94633.22;5019301;28;20806;-72
2022/06/21 10:40:00;;;;;;;10.25;9.45;;;;;;;29.21;49.80;94628.78;5029079;28;20202;-72
2022/06/21 10:42:50;;;;;;;10.25;9.25;;;;;;;29.24;49.69;94631.06;5029072;28;20218;-71
2022/06/21 10:45:42;;;;;;;9.57;8.65;;;;;;;29.35;49.37;94629.84;5028318;28;20884;-72
2022/06/21 10:48:36;;;;;;;12.82;10.73;;;;;;;29.29;49.26;94641.81;5013614;28;20210;-73
2022/06/21 10:51:14;;;;;;;10.15;9.35;;;;;;;29.21;48.80;94641.06;5028355;28;20571;-73
2022/06/21 10:54:08;;;;;;;14.68;10.70;;;;;;;29.08;49.36;94639.84;5028117;28;20288;-72
2022/06/21 11:02:40;;;;;;;17.63;11.68;;;;;;;29.30;49.33;94638.22;4996659;28;20200;-72
2022/06/21 11:05:17;;;;;;;18.45;12.23;;;;;;;29.36;49.69;94636.69;5027687;28;20238;-70
2022/06/21 11:07:51;;;;;;;11.68;10.60;;;;;;;29.48;50.38;94639.72;5027294;28;20202;-71
2022/06/21 11:10:24;;;;;;;13.30;11.27;;;;;;;29.61;50.02;94634.72;5027615;28;20242;-71
2022/06/21 11:13:04;;;;;;;17.77;13.18;;;;;;;29.71;49.13;94635.25;5027332;28;20698;-71
2022/06/21 11:15:42;;;;;;;11.65;10.30;;;;;;;29.64;49.19;94635.19;5027641;28;20272;-70
2022/06/21 11:18:23;;;;;;;14.32;10.27;;;;;;;29.66;49.78;94633.19;5027629;28;20304;-71
2022/06/21 11:20:59;;;;;;;12.07;10.40;;;;;;;29.65;49.39;94628.94;5027309;28;20199;-72
2022/06/21 11:23:38;;;;;;;12.60;9.63;;;;;;;29.67;50.14;94637.44;5027088;28;20676;-70
2022/06/21 11:26:16;;;;;;;13.38;10.65;;;;;;;29.70;49.09;94633.63;5027188;28;20207;-71
2022/06/21 11:28:50;;;;;;;10.48;9.25;;;;;;;29.79;49.01;94632.56;5027232;28;20215;-70
2022/06/21 11:31:22;;;;;;;10.32;9.18;;;;;;;29.95;48.46;94635.00;5027354;28;20690;-72
2022/06/21 11:34:01;;;;;;;10.50;9.52;;;;;;;29.70;48.04;94639.69;5028470;28;20924;-72
2022/06/21 11:36:38;;;;;;;12.95;9.68;;;;;;;29.63;49.20;94623.06;5027683;28;20233;-69
2022/06/21 11:39:23;;;;;;;10.77;9.48;;;;;;;29.77;49.59;94630.13;5027956;28;20207;-70
2022/06/21 11:42:19;;;;;;;13.88;10.27;;;;;;;29.71;49.18;94636.06;5027467;28;21174;-70
2022/06/21 11:45:18;;;;;;;12.25;10.45;;;;;;;29.84;49.60;94629.41;5027531;28;20261;-72
2022/06/21 11:48:07;;;;;;;17.33;15.50;;;;;;;29.78;48.38;94631.75;5027133;28;20203;-70
2022/06/21 11:50:45;;;;;;;16.40;13.30;;;;;;;29.79;48.27;94630.75;5027850;28;20207;-71
2022/06/21 11:53:41;;;;;;;13.10;11.55;;;;;;;29.75;48.75;94631.28;5027599;28;20211;-71
2022/06/21 11:56:14;;;;;;;18.10;12.13;;;;;;;29.65;49.27;94626.34;5027726;28;20813;-70
2022/06/21 11:58:49;;;;;;;16.10;11.52;;;;;;;29.78;49.35;94623.09;5027619;28;20222;-70
2022/06/21 12:01:22;;;;;;;17.73;12.23;;;;;;;29.96;49.13;94614.88;5027370;28;20191;-69
2022/06/21 12:04:03;;;;;;;21.40;13.52;;;;;;;29.90;49.93;94623.47;5027345;28;20214;-67
2022/06/21 12:06:37;;;;;;;13.35;10.32;;;;;;;29.98;50.17;94615.50;5027301;28;20210;-70
2022/06/21 12:09:13;;;;;;;13.35;11.85;;;;;;;30.06;48.75;94612.84;5027296;28;20207;-70
2022/06/21 12:11:51;;;;;;;12.82;11.52;;;;;;;30.18;49.45;94621.88;5026870;28;20303;-70
2022/06/21 12:14:34;;;;;;;12.25;10.98;;;;;;;30.15;48.83;94601.28;5026387;28;20234;-70
2022/06/21 12:17:10;;;;;;;11.38;10.25;;;;;;;29.94;49.27;94606.41;5027003;28;20292;-71